sensor_id;sensor_type;location;lat;lon;timestamp;temperature;humidity
38746;DHT22;24488;0.000;0.000;2022-10-31T00:01:12;21.80;71.20
38746;DHT22;24488;0.000;0.000;2022-10-31T00:03:40;21.90;71.30
38746;DHT22;24488;0.000;0.000;2022-10-31T00:06:05;21.90;71.50
38746;DHT22;24488;0.000;0.000;2022-10-31T00:08:31;21.90;71.30
38746;DHT22;24488;0.000;0.000;2022-10-31T00:10:56;22.00;71.60
38746;DHT22;24488;0.000;0.000;2022-10-31T00:13:22;21.80;70.90
38746;DHT22;24488;0.000;0.000;2022-10-31T00:15:48;21.80;71.60
38746;DHT22;24488;0.000;0.000;2022-10-31T00:18:13;22.10;71.60
38746;DHT22;24488;0.000;0.000;2022-10-31T00:20:39;21.80;71.40
38746;DHT22;24488;0.000;0.000;2022-10-31T00:23:05;21.90;71.50
38746;DHT22;24488;0.000;0.000;2022-10-31T00:25:34;21.90;71.30
38746;DHT22;24488;0.000;0.000;2022-10-31T00:28:01;21.80;71.40
38746;DHT22;24488;0.000;0.000;2022-10-31T00:30:28;21.80;71.40
38746;DHT22;24488;0.000;0.000;2022-10-31T00:32:53;21.90;71.60
38746;DHT22;24488;0.000;0.000;2022-10-31T00:35:19;21.80;71.50
38746;DHT22;24488;0.000;0.000;2022-10-31T00:37:44;22.00;71.70
38746;DHT22;24488;0.000;0.000;2022-10-31T00:40:10;21.90;71.50
38746;DHT22;24488;0.000;0.000;2022-10-31T00:42:36;21.70;71.30
38746;DHT22;24488;0.000;0.000;2022-10-31T00:45:02;21.80;71.40
38746;DHT22;24488;0.000;0.000;2022-10-31T00:47:27;21.80;71.60
38746;DHT22;24488;0.000;0.000;2022-10-31T00:49:53;21.90;71.60
38746;DHT22;24488;0.000;0.000;2022-10-31T00:52:18;21.70;71.60
38746;DHT22;24488;0.000;0.000;2022-10-31T00:54:44;21.70;70.70
38746;DHT22;24488;0.000;0.000;2022-10-31T00:57:10;21.90;71.60
38746;DHT22;24488;0.000;0.000;2022-10-31T00:59:35;21.90;71.50
38746;DHT22;24488;0.000;0.000;2022-10-31T01:02:01;22.00;71.60
38746;DHT22;24488;0.000;0.000;2022-10-31T01:04:26;21.80;71.50
38746;DHT22;24488;0.000;0.000;2022-10-31T01:06:52;22.10;71.60
38746;DHT22;24488;0.000;0.000;2022-10-31T01:09:17;21.90;71.60
38746;DHT22;24488;0.000;0.000;2022-10-31T01:11:43;21.70;71.50
38746;DHT22;24488;0.000;0.000;2022-10-31T01:14:09;22.00;71.60
38746;DHT22;24488;0.000;0.000;2022-10-31T01:16:35;21.80;71.40
38746;DHT22;24488;0.000;0.000;2022-10-31T01:19:00;21.70;72.00
38746;DHT22;24488;0.000;0.000;2022-10-31T01:21:26;21.80;71.60
38746;DHT22;24488;0.000;0.000;2022-10-31T01:23:53;21.80;71.50
38746;DHT22;24488;0.000;0.000;2022-10-31T01:26:20;21.80;71.30
38746;DHT22;24488;0.000;0.000;2022-10-31T01:28:48;22.00;72.10
38746;DHT22;24488;0.000;0.000;2022-10-31T01:31:19;21.70;71.20
38746;DHT22;24488;0.000;0.000;2022-10-31T01:33:47;21.80;71.50
38746;DHT22;24488;0.000;0.000;2022-10-31T01:36:23;22.00;71.50
38746;DHT22;24488;0.000;0.000;2022-10-31T01:39:00;21.70;71.20
38746;DHT22;24488;0.000;0.000;2022-10-31T01:41:30;21.80;71.40
38746;DHT22;24488;0.000;0.000;2022-10-31T01:43:58;21.80;71.30
38746;DHT22;24488;0.000;0.000;2022-10-31T01:46:29;21.80;71.30
38746;DHT22;24488;0.000;0.000;2022-10-31T01:48:57;21.80;71.20
38746;DHT22;24488;0.000;0.000;2022-10-31T01:51:26;21.90;71.40
38746;DHT22;24488;0.000;0.000;2022-10-31T01:53:58;21.90;71.30
38746;DHT22;24488;0.000;0.000;2022-10-31T01:56:27;21.80;71.30
38746;DHT22;24488;0.000;0.000;2022-10-31T01:58:52;21.90;71.40
38746;DHT22;24488;0.000;0.000;2022-10-31T02:01:20;22.00;71.50
38746;DHT22;24488;0.000;0.000;2022-10-31T02:03:45;21.80;71.40
38746;DHT22;24488;0.000;0.000;2022-10-31T02:06:14;21.80;71.30
38746;DHT22;24488;0.000;0.000;2022-10-31T02:08:52;21.80;71.30
38746;DHT22;24488;0.000;0.000;2022-10-31T02:11:18;21.80;71.30
38746;DHT22;24488;0.000;0.000;2022-10-31T02:13:44;22.20;71.50
38746;DHT22;24488;0.000;0.000;2022-10-31T02:16:10;22.00;71.50
38746;DHT22;24488;0.000;0.000;2022-10-31T02:18:36;21.70;71.30
38746;DHT22;24488;0.000;0.000;2022-10-31T02:21:04;21.80;71.50
38746;DHT22;24488;0.000;0.000;2022-10-31T02:27:03;21.80;71.10
38746;DHT22;24488;0.000;0.000;2022-10-31T02:32:39;21.80;71.40
38746;DHT22;24488;0.000;0.000;2022-10-31T02:35:29;21.70;71.20
38746;DHT22;24488;0.000;0.000;2022-10-31T02:46:13;21.70;71.10
38746;DHT22;24488;0.000;0.000;2022-10-31T02:48:42;21.80;71.20
38746;DHT22;24488;0.000;0.000;2022-10-31T02:51:09;21.90;71.40
38746;DHT22;24488;0.000;0.000;2022-10-31T02:53:36;21.70;71.20
38746;DHT22;24488;0.000;0.000;2022-10-31T02:56:11;21.70;71.20
38746;DHT22;24488;0.000;0.000;2022-10-31T02:58:43;21.70;71.10
38746;DHT22;24488;0.000;0.000;2022-10-31T03:09:26;21.80;71.10
38746;DHT22;24488;0.000;0.000;2022-10-31T03:12:06;21.70;71.00
38746;DHT22;24488;0.000;0.000;2022-10-31T03:14:43;21.70;71.10
38746;DHT22;24488;0.000;0.000;2022-10-31T03:17:53;21.80;71.10
38746;DHT22;24488;0.000;0.000;2022-10-31T03:20:22;21.80;71.10
38746;DHT22;24488;0.000;0.000;2022-10-31T03:22:51;22.00;71.40
38746;DHT22;24488;0.000;0.000;2022-10-31T03:25:18;21.40;70.90
38746;DHT22;24488;0.000;0.000;2022-10-31T03:27:43;21.80;71.20
38746;DHT22;24488;0.000;0.000;2022-10-31T03:30:10;21.90;71.10
38746;DHT22;24488;0.000;0.000;2022-10-31T03:32:44;21.80;71.10
38746;DHT22;24488;0.000;0.000;2022-10-31T03:35:13;21.70;71.00
38746;DHT22;24488;0.000;0.000;2022-10-31T03:37:41;21.80;71.20
38746;DHT22;24488;0.000;0.000;2022-10-31T03:40:07;22.10;71.30
38746;DHT22;24488;0.000;0.000;2022-10-31T03:42:34;21.70;71.00
38746;DHT22;24488;0.000;0.000;2022-10-31T03:45:08;21.80;71.20
38746;DHT22;24488;0.000;0.000;2022-10-31T03:47:38;21.80;71.10
38746;DHT22;24488;0.000;0.000;2022-10-31T03:50:07;21.90;71.30
38746;DHT22;24488;0.000;0.000;2022-10-31T03:52:35;21.70;71.00
38746;DHT22;24488;0.000;0.000;2022-10-31T03:55:12;21.70;71.00
38746;DHT22;24488;0.000;0.000;2022-10-31T03:57:46;21.70;71.00
38746;DHT22;24488;0.000;0.000;2022-10-31T04:00:28;21.70;71.10
38746;DHT22;24488;0.000;0.000;2022-10-31T04:02:57;21.80;71.10
38746;DHT22;24488;0.000;0.000;2022-10-31T04:05:25;21.80;71.70
38746;DHT22;24488;0.000;0.000;2022-10-31T04:07:52;22.00;71.40
38746;DHT22;24488;0.000;0.000;2022-10-31T04:10:19;21.70;71.00
38746;DHT22;24488;0.000;0.000;2022-10-31T04:12:48;21.80;71.10
38746;DHT22;24488;0.000;0.000;2022-10-31T04:15:16;22.10;71.30
38746;DHT22;24488;0.000;0.000;2022-10-31T04:17:42;21.70;71.00
38746;DHT22;24488;0.000;0.000;2022-10-31T04:20:11;21.80;71.20
38746;DHT22;24488;0.000;0.000;2022-10-31T04:22:41;21.80;71.00
38746;DHT22;24488;0.000;0.000;2022-10-31T04:25:06;21.70;71.20
38746;DHT22;24488;0.000;0.000;2022-10-31T04:27:32;21.80;71.10
38746;DHT22;24488;0.000;0.000;2022-10-31T04:29:58;21.90;71.20
38746;DHT22;24488;0.000;0.000;2022-10-31T04:32:24;21.80;71.40
38746;DHT22;24488;0.000;0.000;2022-10-31T04:34:50;21.80;71.10
38746;DHT22;24488;0.000;0.000;2022-10-31T04:37:16;21.70;71.20
38746;DHT22;24488;0.000;0.000;2022-10-31T04:39:41;21.70;71.10
38746;DHT22;24488;0.000;0.000;2022-10-31T04:42:07;21.70;70.60
38746;DHT22;24488;0.000;0.000;2022-10-31T04:44:32;22.00;71.60
38746;DHT22;24488;0.000;0.000;2022-10-31T04:46:58;21.70;71.30
38746;DHT22;24488;0.000;0.000;2022-10-31T04:49:23;21.70;71.30
38746;DHT22;24488;0.000;0.000;2022-10-31T04:51:49;21.70;71.20
38746;DHT22;24488;0.000;0.000;2022-10-31T04:54:14;21.70;71.20
38746;DHT22;24488;0.000;0.000;2022-10-31T04:56:40;21.90;71.30
38746;DHT22;24488;0.000;0.000;2022-10-31T04:59:06;21.60;71.20
38746;DHT22;24488;0.000;0.000;2022-10-31T05:01:31;22.00;71.40
38746;DHT22;24488;0.000;0.000;2022-10-31T05:03:57;21.80;71.40
38746;DHT22;24488;0.000;0.000;2022-10-31T05:06:22;21.60;71.10
38746;DHT22;24488;0.000;0.000;2022-10-31T05:08:48;22.00;71.40
38746;DHT22;24488;0.000;0.000;2022-10-31T05:11:13;21.70;71.30
38746;DHT22;24488;0.000;0.000;2022-10-31T05:13:39;21.70;71.30
38746;DHT22;24488;0.000;0.000;2022-10-31T05:16:05;21.70;71.20
38746;DHT22;24488;0.000;0.000;2022-10-31T05:18:30;21.70;71.30
38746;DHT22;24488;0.000;0.000;2022-10-31T05:20:56;21.80;71.20
38746;DHT22;24488;0.000;0.000;2022-10-31T05:23:22;21.70;71.10
38746;DHT22;24488;0.000;0.000;2022-10-31T05:25:47;21.70;71.10
38746;DHT22;24488;0.000;0.000;2022-10-31T05:28:13;21.70;71.20
38746;DHT22;24488;0.000;0.000;2022-10-31T05:30:38;21.90;71.20
38746;DHT22;24488;0.000;0.000;2022-10-31T05:33:04;21.60;71.10
38746;DHT22;24488;0.000;0.000;2022-10-31T05:35:31;21.70;71.00
38746;DHT22;24488;0.000;0.000;2022-10-31T05:37:57;21.80;71.10
38746;DHT22;24488;0.000;0.000;2022-10-31T05:40:23;21.70;71.00
38746;DHT22;24488;0.000;0.000;2022-10-31T05:42:50;21.70;71.00
38746;DHT22;24488;0.000;0.000;2022-10-31T05:45:17;21.70;71.00
38746;DHT22;24488;0.000;0.000;2022-10-31T05:47:49;21.70;71.10
38746;DHT22;24488;0.000;0.000;2022-10-31T05:50:18;21.70;71.00
38746;DHT22;24488;0.000;0.000;2022-10-31T05:52:44;21.80;71.00
38746;DHT22;24488;0.000;0.000;2022-10-31T05:55:10;21.70;71.10
38746;DHT22;24488;0.000;0.000;2022-10-31T05:57:35;21.50;71.00
38746;DHT22;24488;0.000;0.000;2022-10-31T06:00:01;21.80;71.20
38746;DHT22;24488;0.000;0.000;2022-10-31T06:02:26;21.70;70.90
38746;DHT22;24488;0.000;0.000;2022-10-31T06:04:52;21.70;71.00
38746;DHT22;24488;0.000;0.000;2022-10-31T06:07:18;21.70;71.00
38746;DHT22;24488;0.000;0.000;2022-10-31T06:09:43;21.60;70.90
38746;DHT22;24488;0.000;0.000;2022-10-31T06:12:09;21.60;70.90
38746;DHT22;24488;0.000;0.000;2022-10-31T06:14:34;21.70;71.00
38746;DHT22;24488;0.000;0.000;2022-10-31T06:17:00;21.60;71.00
38746;DHT22;24488;0.000;0.000;2022-10-31T06:19:26;21.60;70.90
38746;DHT22;24488;0.000;0.000;2022-10-31T06:21:52;21.60;70.80
38746;DHT22;24488;0.000;0.000;2022-10-31T06:24:17;21.60;70.80
38746;DHT22;24488;0.000;0.000;2022-10-31T06:26:43;21.70;71.00
38746;DHT22;24488;0.000;0.000;2022-10-31T06:29:08;21.60;71.20
38746;DHT22;24488;0.000;0.000;2022-10-31T06:31:34;21.80;71.00
38746;DHT22;24488;0.000;0.000;2022-10-31T06:33:59;21.60;71.00
38746;DHT22;24488;0.000;0.000;2022-10-31T06:36:25;21.70;70.90
38746;DHT22;24488;0.000;0.000;2022-10-31T06:38:51;21.60;70.80
38746;DHT22;24488;0.000;0.000;2022-10-31T06:41:16;21.80;70.90
38746;DHT22;24488;0.000;0.000;2022-10-31T06:43:42;21.60;71.00
38746;DHT22;24488;0.000;0.000;2022-10-31T06:46:08;21.60;70.80
38746;DHT22;24488;0.000;0.000;2022-10-31T06:48:33;21.70;70.80
38746;DHT22;24488;0.000;0.000;2022-10-31T06:50:59;21.80;71.10
38746;DHT22;24488;0.000;0.000;2022-10-31T06:53:26;21.80;71.00
38746;DHT22;24488;0.000;0.000;2022-10-31T06:55:52;21.60;70.90
38746;DHT22;24488;0.000;0.000;2022-10-31T06:58:17;21.70;70.90
38746;DHT22;24488;0.000;0.000;2022-10-31T07:00:43;21.60;70.80
38746;DHT22;24488;0.000;0.000;2022-10-31T07:03:10;21.60;70.80
38746;DHT22;24488;0.000;0.000;2022-10-31T07:05:36;21.70;70.70
38746;DHT22;24488;0.000;0.000;2022-10-31T07:08:03;21.70;70.80
38746;DHT22;24488;0.000;0.000;2022-10-31T07:10:31;21.60;70.70
38746;DHT22;24488;0.000;0.000;2022-10-31T07:12:58;21.60;70.90
38746;DHT22;24488;0.000;0.000;2022-10-31T07:15:25;21.70;70.70
38746;DHT22;24488;0.000;0.000;2022-10-31T07:17:52;21.70;70.80
38746;DHT22;24488;0.000;0.000;2022-10-31T07:20:18;21.60;70.80
38746;DHT22;24488;0.000;0.000;2022-10-31T07:22:43;21.70;70.80
38746;DHT22;24488;0.000;0.000;2022-10-31T07:25:09;21.70;70.80
38746;DHT22;24488;0.000;0.000;2022-10-31T07:27:36;21.70;70.70
38746;DHT22;24488;0.000;0.000;2022-10-31T07:30:02;21.60;70.70
38746;DHT22;24488;0.000;0.000;2022-10-31T07:32:36;21.60;70.70
38746;DHT22;24488;0.000;0.000;2022-10-31T07:35:03;21.80;70.80
38746;DHT22;24488;0.000;0.000;2022-10-31T07:37:29;21.50;70.60
38746;DHT22;24488;0.000;0.000;2022-10-31T07:39:54;21.60;70.90
38746;DHT22;24488;0.000;0.000;2022-10-31T07:42:20;21.60;70.70
38746;DHT22;24488;0.000;0.000;2022-10-31T07:44:45;21.70;70.70
38746;DHT22;24488;0.000;0.000;2022-10-31T07:47:11;21.60;70.70
38746;DHT22;24488;0.000;0.000;2022-10-31T07:49:37;21.60;70.60
38746;DHT22;24488;0.000;0.000;2022-10-31T07:52:02;21.70;70.70
38746;DHT22;24488;0.000;0.000;2022-10-31T07:54:28;21.60;70.60
38746;DHT22;24488;0.000;0.000;2022-10-31T07:56:53;21.60;70.60
38746;DHT22;24488;0.000;0.000;2022-10-31T07:59:19;21.60;70.70
38746;DHT22;24488;0.000;0.000;2022-10-31T08:01:44;21.60;70.60
38746;DHT22;24488;0.000;0.000;2022-10-31T08:04:10;21.90;70.90
38746;DHT22;24488;0.000;0.000;2022-10-31T08:06:35;21.70;70.70
38746;DHT22;24488;0.000;0.000;2022-10-31T08:09:01;21.60;70.70
38746;DHT22;24488;0.000;0.000;2022-10-31T08:11:27;22.30;71.00
38746;DHT22;24488;0.000;0.000;2022-10-31T08:13:52;21.70;70.60
38746;DHT22;24488;0.000;0.000;2022-10-31T08:16:18;21.60;70.60
38746;DHT22;24488;0.000;0.000;2022-10-31T08:18:43;21.70;70.70
38746;DHT22;24488;0.000;0.000;2022-10-31T08:21:09;21.70;70.60
38746;DHT22;24488;0.000;0.000;2022-10-31T08:23:35;21.60;70.70
38746;DHT22;24488;0.000;0.000;2022-10-31T08:26:01;21.50;70.50
38746;DHT22;24488;0.000;0.000;2022-10-31T08:28:26;21.70;70.70
38746;DHT22;24488;0.000;0.000;2022-10-31T08:30:52;21.70;70.70
38746;DHT22;24488;0.000;0.000;2022-10-31T08:33:18;21.70;70.60
38746;DHT22;24488;0.000;0.000;2022-10-31T08:35:43;21.60;70.60
38746;DHT22;24488;0.000;0.000;2022-10-31T08:38:10;21.70;70.70
38746;DHT22;24488;0.000;0.000;2022-10-31T08:40:37;21.70;70.50
38746;DHT22;24488;0.000;0.000;2022-10-31T08:43:03;21.80;70.60
38746;DHT22;24488;0.000;0.000;2022-10-31T08:45:35;21.70;70.60
38746;DHT22;24488;0.000;0.000;2022-10-31T08:48:05;21.60;70.60
38746;DHT22;24488;0.000;0.000;2022-10-31T08:50:33;21.50;70.40
38746;DHT22;24488;0.000;0.000;2022-10-31T08:53:04;21.60;70.50
38746;DHT22;24488;0.000;0.000;2022-10-31T08:55:32;21.70;70.50
38746;DHT22;24488;0.000;0.000;2022-10-31T08:57:58;21.70;70.60
38746;DHT22;24488;0.000;0.000;2022-10-31T09:00:24;21.90;70.70
38746;DHT22;24488;0.000;0.000;2022-10-31T09:02:56;21.60;70.40
38746;DHT22;24488;0.000;0.000;2022-10-31T09:05:23;21.60;70.30
38746;DHT22;24488;0.000;0.000;2022-10-31T09:07:49;21.50;70.40
38746;DHT22;24488;0.000;0.000;2022-10-31T09:10:14;21.60;70.50
38746;DHT22;24488;0.000;0.000;2022-10-31T09:12:40;21.50;71.10
38746;DHT22;24488;0.000;0.000;2022-10-31T09:15:06;21.60;70.60
38746;DHT22;24488;0.000;0.000;2022-10-31T09:17:32;21.50;70.50
38746;DHT22;24488;0.000;0.000;2022-10-31T09:19:58;21.60;70.60
38746;DHT22;24488;0.000;0.000;2022-10-31T09:22:24;21.60;70.40
38746;DHT22;24488;0.000;0.000;2022-10-31T09:24:49;21.80;70.60
38746;DHT22;24488;0.000;0.000;2022-10-31T09:27:15;21.90;70.60
38746;DHT22;24488;0.000;0.000;2022-10-31T09:29:40;21.60;70.60
38746;DHT22;24488;0.000;0.000;2022-10-31T09:32:06;21.70;70.50
38746;DHT22;24488;0.000;0.000;2022-10-31T09:34:31;21.50;70.40
38746;DHT22;24488;0.000;0.000;2022-10-31T09:36:57;21.70;70.50
38746;DHT22;24488;0.000;0.000;2022-10-31T09:39:22;21.50;70.50
38746;DHT22;24488;0.000;0.000;2022-10-31T09:50:25;21.60;70.30
38746;DHT22;24488;0.000;0.000;2022-10-31T09:53:04;21.80;70.50
38746;DHT22;24488;0.000;0.000;2022-10-31T09:55:39;21.70;70.60
38746;DHT22;24488;0.000;0.000;2022-10-31T09:58:09;21.60;70.40
38746;DHT22;24488;0.000;0.000;2022-10-31T10:00:41;21.60;70.40
38746;DHT22;24488;0.000;0.000;2022-10-31T10:08:38;21.50;70.40
38746;DHT22;24488;0.000;0.000;2022-10-31T10:16:36;21.70;70.40
38746;DHT22;24488;0.000;0.000;2022-10-31T10:19:17;21.60;70.40
38746;DHT22;24488;0.000;0.000;2022-10-31T10:27:24;21.50;70.30
38746;DHT22;24488;0.000;0.000;2022-10-31T10:30:37;21.60;70.30
38746;DHT22;24488;0.000;0.000;2022-10-31T10:32:45;21.70;70.50
38746;DHT22;24488;0.000;0.000;2022-10-31T10:35:47;21.60;70.40
38746;DHT22;24488;0.000;0.000;2022-10-31T10:41:02;21.60;70.40
38746;DHT22;24488;0.000;0.000;2022-10-31T10:57:34;21.60;70.40
38746;DHT22;24488;0.000;0.000;2022-10-31T11:00:20;21.50;70.50
38746;DHT22;24488;0.000;0.000;2022-10-31T11:02:47;21.60;70.40
38746;DHT22;24488;0.000;0.000;2022-10-31T11:05:15;21.50;70.50
38746;DHT22;24488;0.000;0.000;2022-10-31T11:07:45;21.70;70.50
38746;DHT22;24488;0.000;0.000;2022-10-31T11:10:12;21.70;70.80
38746;DHT22;24488;0.000;0.000;2022-10-31T11:12:42;21.60;70.50
38746;DHT22;24488;0.000;0.000;2022-10-31T11:15:27;21.60;70.50
38746;DHT22;24488;0.000;0.000;2022-10-31T11:17:54;21.70;70.50
38746;DHT22;24488;0.000;0.000;2022-10-31T11:23:02;21.50;70.50
38746;DHT22;24488;0.000;0.000;2022-10-31T11:28:56;21.50;70.50
38746;DHT22;24488;0.000;0.000;2022-10-31T11:31:22;21.60;70.60
38746;DHT22;24488;0.000;0.000;2022-10-31T11:33:49;21.80;70.70
38746;DHT22;24488;0.000;0.000;2022-10-31T11:36:20;21.60;71.00
38746;DHT22;24488;0.000;0.000;2022-10-31T11:38:50;21.70;70.60
38746;DHT22;24488;0.000;0.000;2022-10-31T11:41:35;21.60;70.60
38746;DHT22;24488;0.000;0.000;2022-10-31T11:46:38;21.60;70.30
38746;DHT22;24488;0.000;0.000;2022-10-31T11:49:11;21.90;70.80
38746;DHT22;24488;0.000;0.000;2022-10-31T11:52:03;21.70;71.40
38746;DHT22;24488;0.000;0.000;2022-10-31T11:54:47;21.70;70.70
38746;DHT22;24488;0.000;0.000;2022-10-31T11:59:56;21.50;70.40
38746;DHT22;24488;0.000;0.000;2022-10-31T12:02:23;21.70;70.60
38746;DHT22;24488;0.000;0.000;2022-10-31T12:07:32;21.60;70.50
38746;DHT22;24488;0.000;0.000;2022-10-31T12:09:57;21.60;70.60
38746;DHT22;24488;0.000;0.000;2022-10-31T12:12:26;21.70;70.60
38746;DHT22;24488;0.000;0.000;2022-10-31T12:17:49;21.70;70.50
38746;DHT22;24488;0.000;0.000;2022-10-31T12:20:35;21.50;71.30
38746;DHT22;24488;0.000;0.000;2022-10-31T12:23:15;21.70;70.50
38746;DHT22;24488;0.000;0.000;2022-10-31T12:36:59;21.50;70.40
38746;DHT22;24488;0.000;0.000;2022-10-31T12:58:41;21.60;70.60
38746;DHT22;24488;0.000;0.000;2022-10-31T13:01:15;21.80;70.70
38746;DHT22;24488;0.000;0.000;2022-10-31T13:03:46;21.90;70.60
38746;DHT22;24488;0.000;0.000;2022-10-31T13:06:20;21.50;70.60
38746;DHT22;24488;0.000;0.000;2022-10-31T13:08:59;21.60;70.60
38746;DHT22;24488;0.000;0.000;2022-10-31T13:14:09;21.60;70.30
38746;DHT22;24488;0.000;0.000;2022-10-31T13:16:42;21.60;70.40
38746;DHT22;24488;0.000;0.000;2022-10-31T13:19:16;21.70;70.70
38746;DHT22;24488;0.000;0.000;2022-10-31T13:21:48;21.70;70.50
38746;DHT22;24488;0.000;0.000;2022-10-31T13:24:34;21.60;70.70
38746;DHT22;24488;0.000;0.000;2022-10-31T13:27:03;21.60;70.60
38746;DHT22;24488;0.000;0.000;2022-10-31T13:29:39;21.60;70.50
38746;DHT22;24488;0.000;0.000;2022-10-31T13:32:08;21.80;70.70
38746;DHT22;24488;0.000;0.000;2022-10-31T13:34:51;21.80;70.60
38746;DHT22;24488;0.000;0.000;2022-10-31T13:37:29;21.60;70.50
38746;DHT22;24488;0.000;0.000;2022-10-31T13:46:46;21.60;70.40
38746;DHT22;24488;0.000;0.000;2022-10-31T13:49:23;21.60;70.60
38746;DHT22;24488;0.000;0.000;2022-10-31T13:51:49;21.70;70.50
38746;DHT22;24488;0.000;0.000;2022-10-31T13:54:33;21.60;70.60
38746;DHT22;24488;0.000;0.000;2022-10-31T13:57:00;21.50;70.50
38746;DHT22;24488;0.000;0.000;2022-10-31T13:59:27;21.60;70.70
38746;DHT22;24488;0.000;0.000;2022-10-31T14:01:57;21.70;70.70
38746;DHT22;24488;0.000;0.000;2022-10-31T14:04:26;21.50;70.40
38746;DHT22;24488;0.000;0.000;2022-10-31T14:07:06;21.80;70.70
38746;DHT22;24488;0.000;0.000;2022-10-31T14:15:15;21.70;70.60
38746;DHT22;24488;0.000;0.000;2022-10-31T14:17:55;21.50;70.60
38746;DHT22;24488;0.000;0.000;2022-10-31T14:23:11;21.80;70.80
38746;DHT22;24488;0.000;0.000;2022-10-31T14:25:38;21.60;70.50
38746;DHT22;24488;0.000;0.000;2022-10-31T14:28:20;21.70;70.80
38746;DHT22;24488;0.000;0.000;2022-10-31T14:30:56;21.70;70.60
38746;DHT22;24488;0.000;0.000;2022-10-31T14:33:24;21.60;70.60
38746;DHT22;24488;0.000;0.000;2022-10-31T14:35:53;21.60;70.70
38746;DHT22;24488;0.000;0.000;2022-10-31T14:41:23;21.70;70.70
38746;DHT22;24488;0.000;0.000;2022-10-31T14:46:34;21.60;70.60
38746;DHT22;24488;0.000;0.000;2022-10-31T14:51:52;21.60;70.70
38746;DHT22;24488;0.000;0.000;2022-10-31T14:54:32;21.70;70.70
38746;DHT22;24488;0.000;0.000;2022-10-31T14:57:16;21.60;70.60
38746;DHT22;24488;0.000;0.000;2022-10-31T14:59:47;21.70;70.70
38746;DHT22;24488;0.000;0.000;2022-10-31T15:04:52;21.70;70.70
38746;DHT22;24488;0.000;0.000;2022-10-31T15:07:20;21.60;70.70
38746;DHT22;24488;0.000;0.000;2022-10-31T15:10:02;21.70;70.70
38746;DHT22;24488;0.000;0.000;2022-10-31T15:12:30;21.60;70.70
38746;DHT22;24488;0.000;0.000;2022-10-31T15:14:57;21.60;70.60
38746;DHT22;24488;0.000;0.000;2022-10-31T15:17:26;21.60;70.80
38746;DHT22;24488;0.000;0.000;2022-10-31T15:19:52;21.70;70.90
38746;DHT22;24488;0.000;0.000;2022-10-31T15:22:19;21.60;70.70
38746;DHT22;24488;0.000;0.000;2022-10-31T15:24:45;21.60;70.60
38746;DHT22;24488;0.000;0.000;2022-10-31T15:27:12;21.90;70.90
38746;DHT22;24488;0.000;0.000;2022-10-31T15:29:47;21.60;70.70
38746;DHT22;24488;0.000;0.000;2022-10-31T15:32:18;21.60;70.60
38746;DHT22;24488;0.000;0.000;2022-10-31T15:34:45;21.60;70.60
38746;DHT22;24488;0.000;0.000;2022-10-31T15:37:14;21.70;71.00
38746;DHT22;24488;0.000;0.000;2022-10-31T15:39:41;21.60;70.60
38746;DHT22;24488;0.000;0.000;2022-10-31T15:42:24;21.60;70.70
38746;DHT22;24488;0.000;0.000;2022-10-31T15:47:30;21.70;70.70
38746;DHT22;24488;0.000;0.000;2022-10-31T15:49:57;21.60;70.70
38746;DHT22;24488;0.000;0.000;2022-10-31T15:55:15;22.00;70.90
38746;DHT22;24488;0.000;0.000;2022-10-31T15:57:42;21.70;70.70
38746;DHT22;24488;0.000;0.000;2022-10-31T16:02:49;21.60;70.60
38746;DHT22;24488;0.000;0.000;2022-10-31T16:05:16;21.70;71.00
38746;DHT22;24488;0.000;0.000;2022-10-31T16:07:49;21.60;70.80
38746;DHT22;24488;0.000;0.000;2022-10-31T16:10:23;21.60;70.60
38746;DHT22;24488;0.000;0.000;2022-10-31T16:12:50;21.60;70.80
38746;DHT22;24488;0.000;0.000;2022-10-31T16:15:17;21.70;71.00
38746;DHT22;24488;0.000;0.000;2022-10-31T16:17:45;21.50;70.80
38746;DHT22;24488;0.000;0.000;2022-10-31T16:20:21;21.70;70.80
38746;DHT22;24488;0.000;0.000;2022-10-31T16:22:50;21.70;70.70
38746;DHT22;24488;0.000;0.000;2022-10-31T16:25:20;21.60;70.80
38746;DHT22;24488;0.000;0.000;2022-10-31T16:27:51;21.60;70.80
38746;DHT22;24488;0.000;0.000;2022-10-31T16:30:28;21.80;70.90
38746;DHT22;24488;0.000;0.000;2022-10-31T16:33:03;21.60;70.70
38746;DHT22;24488;0.000;0.000;2022-10-31T16:35:36;21.60;70.90
38746;DHT22;24488;0.000;0.000;2022-10-31T16:38:03;21.60;70.70
38746;DHT22;24488;0.000;0.000;2022-10-31T16:40:30;21.70;70.90
38746;DHT22;24488;0.000;0.000;2022-10-31T16:42:56;21.70;70.70
38746;DHT22;24488;0.000;0.000;2022-10-31T16:45:24;21.60;70.90
38746;DHT22;24488;0.000;0.000;2022-10-31T16:47:51;21.60;70.70
38746;DHT22;24488;0.000;0.000;2022-10-31T16:50:21;21.80;70.90
38746;DHT22;24488;0.000;0.000;2022-10-31T16:52:47;21.60;70.80
38746;DHT22;24488;0.000;0.000;2022-10-31T16:55:13;21.60;71.00
38746;DHT22;24488;0.000;0.000;2022-10-31T16:57:40;21.60;70.80
38746;DHT22;24488;0.000;0.000;2022-10-31T17:00:12;21.60;70.80
38746;DHT22;24488;0.000;0.000;2022-10-31T17:02:38;21.60;70.70
38746;DHT22;24488;0.000;0.000;2022-10-31T17:05:04;21.60;70.80
38746;DHT22;24488;0.000;0.000;2022-10-31T17:07:29;21.70;70.90
38746;DHT22;24488;0.000;0.000;2022-10-31T17:09:55;21.70;71.10
38746;DHT22;24488;0.000;0.000;2022-10-31T17:12:21;21.70;71.10
38746;DHT22;24488;0.000;0.000;2022-10-31T17:14:49;21.60;70.80
38746;DHT22;24488;0.000;0.000;2022-10-31T17:17:15;22.00;71.10
38746;DHT22;24488;0.000;0.000;2022-10-31T17:19:41;21.60;71.00
38746;DHT22;24488;0.000;0.000;2022-10-31T17:22:08;21.60;70.90
38746;DHT22;24488;0.000;0.000;2022-10-31T17:24:38;21.60;70.90
38746;DHT22;24488;0.000;0.000;2022-10-31T17:27:04;21.60;70.80
38746;DHT22;24488;0.000;0.000;2022-10-31T17:29:30;21.60;70.90
38746;DHT22;24488;0.000;0.000;2022-10-31T17:31:56;21.60;71.00
38746;DHT22;24488;0.000;0.000;2022-10-31T17:34:22;21.70;71.00
38746;DHT22;24488;0.000;0.000;2022-10-31T17:36:48;21.60;70.80
38746;DHT22;24488;0.000;0.000;2022-10-31T17:39:15;21.60;70.90
38746;DHT22;24488;0.000;0.000;2022-10-31T17:41:41;21.70;71.00
38746;DHT22;24488;0.000;0.000;2022-10-31T17:44:08;21.70;71.00
38746;DHT22;24488;0.000;0.000;2022-10-31T17:46:34;21.80;71.10
38746;DHT22;24488;0.000;0.000;2022-10-31T17:49:00;21.60;71.00
38746;DHT22;24488;0.000;0.000;2022-10-31T17:51:26;21.70;71.00
38746;DHT22;24488;0.000;0.000;2022-10-31T17:53:51;21.70;71.00
38746;DHT22;24488;0.000;0.000;2022-10-31T17:56:17;21.70;71.10
38746;DHT22;24488;0.000;0.000;2022-10-31T17:58:42;21.60;71.00
38746;DHT22;24488;0.000;0.000;2022-10-31T18:01:09;21.70;71.00
38746;DHT22;24488;0.000;0.000;2022-10-31T18:03:37;21.80;71.10
38746;DHT22;24488;0.000;0.000;2022-10-31T18:06:03;21.80;71.00
38746;DHT22;24488;0.000;0.000;2022-10-31T18:08:30;21.60;70.90
38746;DHT22;24488;0.000;0.000;2022-10-31T18:10:57;21.60;70.90
38746;DHT22;24488;0.000;0.000;2022-10-31T18:13:25;21.70;71.00
38746;DHT22;24488;0.000;0.000;2022-10-31T18:15:51;21.70;71.00
38746;DHT22;24488;0.000;0.000;2022-10-31T18:18:17;21.60;71.00
38746;DHT22;24488;0.000;0.000;2022-10-31T18:20:42;21.60;70.90
38746;DHT22;24488;0.000;0.000;2022-10-31T18:23:08;21.70;70.90